Time;durP1;ratioP1;P1;durP2;ratioP2;P2;SDS_P1;SDS_P2;PMS_P1;PMS_P2;Temp;Humidity;BMP_temperature;BMP_pressure;BME280_temperature;BME280_humidity;BME280_pressure;Samples;Min_cycle;Max_cycle;Signal;HPM_P1;HPM_P2
2022/07/27 00:01:57;;;;;;;3.60;1.00;;;12.20;86.70;;;;;;5096344;28;20378;-84
2022/07/27 00:04:24;;;;;;;3.10;1.02;;;;;;;;;;5095539;28;20376;-85
2022/07/27 00:06:51;;;;;;;3.83;1.15;;;;;;;;;;5096423;28;20701;-84
2022/07/27 00:09:18;;;;;;;3.20;0.98;;;;;;;;;;5095954;28;20394;-81
2022/07/27 00:11:46;;;;;;;2.70;1.02;;;;;;;;;;5095641;28;20372;-83
2022/07/27 00:14:13;;;;;;;2.90;1.00;;;;;;;;;;5095265;28;20364;-81
2022/07/27 00:16:40;;;;;;;2.60;1.10;;;;;;;;;;5095448;28;20425;-82
2022/07/27 00:19:07;;;;;;;3.70;1.13;;;;;;;;;;5095292;28;20395;-82
2022/07/27 00:21:34;;;;;;;3.53;1.05;;;;;;;;;;5095423;28;20369;-82
2022/07/27 00:24:01;;;;;;;2.00;0.90;;;;;;;;;;5095323;28;20435;-83
2022/07/27 00:26:28;;;;;;;3.30;0.90;;;;;;;;;;5095151;28;20396;-82
2022/07/27 00:28:55;;;;;;;3.45;1.10;;;;;;;;;;5094983;28;20864;-82
2022/07/27 00:31:22;;;;;;;3.45;1.00;;;;;;;;;;5095453;28;20434;-83
2022/07/27 00:33:49;;;;;;;2.90;0.90;;;;;;;;;;5095543;28;20712;-81
2022/07/27 00:36:16;;;;;;;3.00;0.90;;;;;;;;;;5095801;28;20384;-82
2022/07/27 00:38:43;;;;;;;3.03;0.90;;;;;;;;;;5095587;28;20743;-83
2022/07/27 00:41:10;;;;;;;3.00;1.00;;;;;;;;;;5095419;28;20392;-82
2022/07/27 00:43:50;;;;;;;2.92;0.90;;;;;;;;;;5094804;28;20774;-83
2022/07/27 00:46:17;;;;;;;2.90;1.00;;;;;;;;;;5094839;28;20376;-83
2022/07/27 00:48:44;;;;;;;2.75;0.90;;;;;;;;;;5095172;28;20372;-84
2022/07/27 00:51:11;;;;;;;3.95;1.00;;;;;;;;;;5095230;28;20948;-84
2022/07/27 00:53:39;;;;;;;1.98;0.85;;;;;;;;;;5094801;28;20361;-83
2022/07/27 00:56:06;;;;;;;2.40;0.90;;;;;;;;;;5094875;28;20372;-84
2022/07/27 00:58:34;;;;;;;2.67;0.90;;;;;;;;;;5094629;28;20484;-85
2022/07/27 01:01:01;;;;;;;2.55;0.80;;;;;;;;;;5093763;28;20380;-84
2022/07/27 01:03:28;;;;;;;2.95;0.80;;;;;;;;;;5094621;28;20391;-83
2022/07/27 01:05:55;;;;;;;2.58;0.80;;;;;;;;;;5094907;28;20376;-83
2022/07/27 01:08:22;;;;;;;2.13;0.80;;;;;;;;;;5094137;28;20364;-83
2022/07/27 01:10:50;;;;;;;2.25;1.00;;;;;;;;;;5094728;28;20403;-83
2022/07/27 01:13:18;;;;;;;2.33;0.90;;;;;;;;;;5094571;28;20452;-84
2022/07/27 01:15:45;;;;;;;2.58;0.98;;;;;;;;;;5095001;28;20368;-83
2022/07/27 01:18:12;;;;;;;2.88;0.82;;;;;;;;;;5093982;28;20404;-84
2022/07/27 01:20:40;;;;;;;3.15;0.80;;;;;;;;;;5097200;28;20374;-83
2022/07/27 01:23:07;;;;;;;3.53;1.10;;;;;;;;;;5096973;28;20373;-84
2022/07/27 01:25:34;;;;;;;3.47;0.80;;;;;;;;;;5096157;28;20376;-84
2022/07/27 01:28:01;;;;;;;2.92;0.90;;;;;;;;;;5095229;28;20368;-83
2022/07/27 01:30:29;;;;;;;2.30;0.85;;;;;;;;;;5095068;28;20921;-83
2022/07/27 01:33:03;;;;;;;3.38;0.90;;;;;;;;;;5094577;28;20372;-83
2022/07/27 01:35:30;;;;;;;2.55;0.90;;;;;;;;;;5094503;28;20407;-84
2022/07/27 01:37:57;;;;;;;1.85;0.80;;;;;;;;;;5094272;28;20372;-82
2022/07/27 01:40:24;;;;;;;1.75;0.93;;;;;;;;;;5094455;28;20377;-84
2022/07/27 01:42:51;;;;;;;2.08;0.75;;;;;;;;;;5094000;28;20407;-83
2022/07/27 01:45:19;;;;;;;2.20;0.80;;;;;;;;;;5095188;28;20373;-84
2022/07/27 01:47:46;;;;;;;3.15;1.00;;;;;;;;;;5095980;28;20372;-85
2022/07/27 01:50:13;;;;;;;2.40;0.90;;;;;;;;;;5104786;28;20479;-86
2022/07/27 01:52:40;;;;;;;2.15;0.88;;;;;;;;;;5115842;28;20360;-84
2022/07/27 01:55:09;;;;;;;2.57;0.97;;;;;;;;;;5116650;28;20373;-86
2022/07/27 01:57:36;;;;;;;2.25;0.80;;;;;;;;;;5105204;28;20364;-84
2022/07/27 02:00:04;;;;;;;2.07;0.87;;;;;;;;;;5108940;28;20368;-85
2022/07/27 02:02:31;;;;;;;2.85;0.90;;;;;;;;;;5098573;28;20396;-84
2022/07/27 02:04:58;;;;;;;2.85;0.80;;;;;;;;;;5094539;28;20896;-83
2022/07/27 02:07:25;;;;;;;3.60;0.80;;;;;;;;;;5094620;28;20407;-85
2022/07/27 02:09:52;;;;;;;1.65;0.80;;;;;;;;;;5094095;28;20430;-85
2022/07/27 02:12:37;;;;;;;2.67;0.90;;;;;;;;;;5093550;28;20364;-84
2022/07/27 02:15:06;;;;;;;3.45;1.05;;;;;;;;;;5093654;28;20372;-84
2022/07/27 02:17:33;;;;;;;4.03;1.27;;;;;;;;;;5093232;28;20360;-85
2022/07/27 02:20:00;;;;;;;4.20;1.10;;;;;;;;;;5092661;28;20375;-84
2022/07/27 02:22:27;;;;;;;6.78;1.27;;;;;;;;;;5093176;28;20879;-83
2022/07/27 02:24:54;;;;;;;4.20;1.00;;;;;;;;;;5093404;28;20454;-85
2022/07/27 02:27:21;;;;;;;3.70;1.00;;;;;;;;;;5091818;28;20738;-83
2022/07/27 02:29:48;;;;;;;3.10;1.10;;;;;;;;;;5093770;28;20396;-84
2022/07/27 02:32:15;;;;;;;3.30;1.15;;;;;;;;;;5093074;28;20372;-85
2022/07/27 02:34:42;;;;;;;5.00;1.17;;;;;;;;;;5092885;28;20379;-84
2022/07/27 02:37:09;;;;;;;1.95;0.90;;;;;;;;;;5093045;28;20368;-83
2022/07/27 02:39:36;;;;;;;3.38;1.00;;;;;;;;;;5093028;28;20380;-86
2022/07/27 02:42:03;;;;;;;2.60;0.95;;;;;;;;;;5092812;28;20388;-87
2022/07/27 02:44:30;;;;;;;4.38;1.05;;;;;;;;;;5093071;28;20383;-84
2022/07/27 02:46:57;;;;;;;2.17;0.90;;;;;;;;;;5091701;28;20381;-85
2022/07/27 02:49:24;;;;;;;3.10;0.90;;;;;;;;;;5093019;28;20404;-85
2022/07/27 02:51:52;;;;;;;4.10;1.00;;;;;;;;;;5093265;28;20554;-86
2022/07/27 02:54:24;;;;;;;3.03;0.90;;;;;;;;;;5093008;28;20860;-85
2022/07/27 02:56:51;;;;;;;3.83;1.00;;;;;;;;;;5092731;28;20372;-84
2022/07/27 02:59:19;;;;;;;3.10;0.83;;;;;;;;;;5092905;28;20575;-86
2022/07/27 03:01:46;;;;;;;5.88;1.10;;;;;;;;;;5092395;28;20378;-85
2022/07/27 03:04:16;;;;;;;4.85;1.20;;;;;;;;;;5092828;28;20913;-83
2022/07/27 03:06:43;;;;;;;4.85;1.10;;;;;;;;;;5092861;28;20488;-84
2022/07/27 03:09:10;;;;;;;3.28;1.20;;;;;;;;;;5092376;28;20474;-84
2022/07/27 03:11:37;;;;;;;3.40;1.05;;;;;;;;;;5091301;28;20381;-84
2022/07/27 03:14:04;;;;;;;2.65;1.10;;;;;;;;;;5092567;28;20873;-84
2022/07/27 03:16:31;;;;;;;3.63;0.82;;;;;;;;;;5092569;28;20439;-85
2022/07/27 03:18:58;;;;;;;4.57;1.20;;;;;;;;;;5092408;28;20448;-83
2022/07/27 03:21:25;;;;;;;6.35;1.67;;;;;;;;;;5092334;28;20375;-84
2022/07/27 03:23:52;;;;;;;4.20;1.42;;;;;;;;;;5092323;28;20446;-84
2022/07/27 03:26:19;;;;;;;3.92;0.98;;;;;;;;;;5092748;28;20715;-84
2022/07/27 03:28:46;;;;;;;1.77;0.77;;;;;;;;;;5091056;28;20736;-82
2022/07/27 03:31:13;;;;;;;1.88;0.80;;;;;;;;;;5094684;28;20380;-84
2022/07/27 03:33:41;;;;;;;2.40;0.90;;;;;;;;;;5096456;28;20371;-83
2022/07/27 03:36:08;;;;;;;3.80;0.93;;;;;;;;;;5096337;28;20897;-84
2022/07/27 03:38:35;;;;;;;3.17;1.00;;;;;;;;;;5096271;28;20364;-84
2022/07/27 03:41:02;;;;;;;2.15;0.80;;;;;;;;;;5096524;28;20840;-83
2022/07/27 03:43:29;;;;;;;2.95;0.90;;;;;;;;;;5095904;28;20388;-84
2022/07/27 03:45:56;;;;;;;1.95;0.80;;;;;;;;;;5096004;28;20368;-84
2022/07/27 03:48:23;;;;;;;2.30;1.00;;;;;;;;;;5096186;28;20389;-84
2022/07/27 03:50:50;;;;;;;4.30;1.15;;;;;;;;;;5095851;28;20466;-84
2022/07/27 03:53:20;;;;;;;4.30;0.82;;;;;;;;;;5095924;28;20375;-85
2022/07/27 03:55:47;;;;;;;5.88;1.02;;;;;;;;;;5095814;28;20372;-85
2022/07/27 03:58:15;;;;;;;1.97;0.80;;;;;;;;;;5096110;28;20368;-84
2022/07/27 04:00:43;;;;;;;2.20;0.87;;;;;;;;;;5094768;28;20729;-85
2022/07/27 04:03:10;;;;;;;3.58;0.90;;;;;;;;;;5095802;28;20384;-85
2022/07/27 04:05:37;;;;;;;1.98;0.80;;;;;;;;;;5095973;28;20353;-82
2022/07/27 04:08:04;;;;;;;2.53;1.00;;;;;;;;;;5095832;28;20747;-84
2022/07/27 04:10:31;;;;;;;3.90;0.98;;;;;;;;;;5095664;28;20483;-86
2022/07/27 04:12:58;;;;;;;2.45;0.80;;;;;;;;;;5095863;28;20364;-88
2022/07/27 04:15:25;;;;;;;1.30;0.70;;;;;;;;;;5096463;28;20368;-83
2022/07/27 04:17:52;;;;;;;1.98;0.80;;;;;;;;;;5098236;28;20363;-84
2022/07/27 04:20:19;;;;;;;2.20;0.90;;;;;;;;;;5098567;28;20421;-85
2022/07/27 04:22:47;;;;;;;3.97;1.00;;;;;;;;;;5099743;28;20386;-83
2022/07/27 04:25:14;;;;;;;2.95;0.85;;;;;;;;;;5099619;28;20732;-86
2022/07/27 04:27:41;;;;;;;2.47;0.98;;;;;;;;;;5100364;28;20396;-82
2022/07/27 04:30:08;;;;;;;3.05;0.93;;;;;;;;;;5098271;28;20404;-84
2022/07/27 04:32:35;;;;;;;2.50;0.88;;;;;;;;;;5097354;28;20395;-84
2022/07/27 04:35:02;;;;;;;1.77;0.80;;;;;;;;;;5096146;28;20417;-86
2022/07/27 04:37:29;;;;;;;3.80;1.30;;;;;;;;;;5095494;28;20860;-86
2022/07/27 04:39:57;;;;;;;2.88;1.08;;;;;;;;;;5095690;28;20724;-83
2022/07/27 04:42:28;;;;;;;5.85;1.30;;;;;;;;;;5093077;28;20450;-85
2022/07/27 04:44:55;;;;;;;2.58;1.10;;;;;;;;;;5095404;28;20744;-83
2022/07/27 04:47:22;;;;;;;3.10;1.20;;;;;;;;;;5095272;28;20372;-85
2022/07/27 04:49:49;;;;;;;3.20;0.80;;;;;;;;;;5095168;28;20471;-85
2022/07/27 04:52:16;;;;;;;2.40;0.90;;;;;;;;;;5095046;28;20456;-83
2022/07/27 04:54:43;;;;;;;3.92;1.10;;;;;;;;;;5095101;28;20400;-85
2022/07/27 04:57:10;;;;;;;4.53;1.13;;;;;;;;;;5095258;28;20387;-84
2022/07/27 04:59:37;;;;;;;2.63;0.93;;;;;;;;;;5093731;28;20380;-85
2022/07/27 05:02:04;;;;;;;3.10;1.10;;;;;;;;;;5094962;28;20411;-86
2022/07/27 05:04:32;;;;;;;3.05;1.10;;;;;;;;;;5094753;28;20441;-83
2022/07/27 05:06:58;;;;;;;3.10;1.20;;;;;;;;;;5094600;28;20401;-85
2022/07/27 05:09:25;;;;;;;2.77;1.10;;;;;;;;;;5094679;28;20800;-86
2022/07/27 05:11:52;;;;;;;4.20;1.00;;;;;;;;;;5094509;28;20441;-85
2022/07/27 05:14:20;;;;;;;2.63;0.90;;;;;;;;;;5094546;28;20467;-85
2022/07/27 05:16:47;;;;;;;3.67;1.10;;;;;;;;;;5094643;28;20373;-83
2022/07/27 05:19:14;;;;;;;2.95;1.00;;;;;;;;;;5094372;28;20364;-87
2022/07/27 05:21:41;;;;;;;4.40;1.15;;;;;;;;;;5094516;28;20831;-84
2022/07/27 05:24:08;;;;;;;4.22;1.15;;;;;;;;;;5092967;28;20380;-83
2022/07/27 05:26:36;;;;;;;2.43;1.00;;;;;;;;;;5093967;28;20384;-88
2022/07/27 05:29:03;;;;;;;2.55;1.02;;;;;;;;;;5093796;28;20451;-83
2022/07/27 05:31:30;;;;;;;3.72;1.10;;;;;;;;;;5094101;28;20376;-83
2022/07/27 05:33:57;;;;;;;3.28;0.93;;;;;;;;;;5094149;28;20418;-84
2022/07/27 05:36:24;;;;;;;2.65;1.10;;;;;;;;;;5094083;28;20372;-86
2022/07/27 05:38:51;;;;;;;3.58;1.13;;;;;;;;;;5093780;28;20856;-86
2022/07/27 05:41:22;;;;;;;2.95;1.10;;;;;;;;;;5093413;28;20376;-83
2022/07/27 05:43:49;;;;;;;4.35;1.10;;;;;;;;;;5092189;28;20413;-84
2022/07/27 05:46:16;;;;;;;3.03;1.00;;;;;;;;;;5093932;28;20865;-86
2022/07/27 05:48:45;;;;;;;4.05;1.10;;;;;;;;;;5093506;28;20716;-82
2022/07/27 05:51:12;;;;;;;4.85;1.10;;;;;;;;;;5093699;28;20392;-85
2022/07/27 05:53:39;;;;;;;4.60;1.20;;;;;;;;;;5093413;28;20883;-84
2022/07/27 05:56:09;;;;;;;2.67;1.13;;;;;;;;;;5093353;28;20377;-88
2022/07/27 05:58:36;;;;;;;2.63;1.00;;;;;;;;;;5093838;28;20457;-85
2022/07/27 06:01:03;;;;;;;3.20;1.20;;;;;;;;;;5094182;28;20437;-84
2022/07/27 06:03:30;;;;;;;4.00;1.07;;;;;;;;;;5093923;28;20747;-87
2022/07/27 06:08:43;;;;;;;3.00;1.27;;;;;;;;;;5093640;28;20451;-87
2022/07/27 06:11:10;;;;;;;3.38;1.60;;;;;;;;;;5093386;28;20790;-85
2022/07/27 06:13:37;;;;;;;2.30;1.00;;;;;;;;;;5093165;28;20364;-84
2022/07/27 06:16:04;;;;;;;2.40;1.00;;;;;;;;;;5093413;28;20368;-85
2022/07/27 06:18:31;;;;;;;4.00;1.20;;;;;;;;;;5093277;28;20720;-87
2022/07/27 06:21:00;;;;;;;4.25;0.98;;;;;;;;;;5093332;28;20426;-85
2022/07/27 06:23:27;;;;;;;3.28;1.05;;;;;;;;;;5096775;28;20425;-86
2022/07/27 06:25:55;;;;;;;3.03;1.48;;;;;;;;;;5097686;28;20383;-88
2022/07/27 06:28:22;;;;;;;4.00;1.30;;;;;;;;;;5097628;28;20375;-85
2022/07/27 06:30:49;;;;;;;4.32;1.90;;;;;;;;;;5095988;28;20428;-85
2022/07/27 06:33:16;;;;;;;4.20;1.63;;;;;;;;;;5093403;28;20390;-89
2022/07/27 06:35:43;;;;;;;5.13;2.70;;;;;;;;;;5093749;28;20368;-83
2022/07/27 06:38:10;;;;;;;4.78;2.00;;;;;;;;;;5094382;28;20369;-92
2022/07/27 06:40:38;;;;;;;3.80;1.77;;;;;;;;;;5093722;28;20455;-95
2022/07/27 06:43:05;;;;;;;6.15;2.90;;;;;;;;;;5091667;28;20400;-84
2022/07/27 06:45:32;;;;;;;3.28;1.10;;;;;;;;;;5092860;28;20380;-85
2022/07/27 06:47:59;;;;;;;4.15;1.60;;;;;;;;;;5092760;28;20369;-85
2022/07/27 06:50:26;;;;;;;4.50;1.77;;;;;;;;;;5093095;28;20897;-87
2022/07/27 06:52:53;;;;;;;3.80;1.45;;;;;;;;;;5091650;28;20492;-86
2022/07/27 06:55:20;;;;;;;7.22;1.50;;;;;;;;;;5092763;28;20368;-84
2022/07/27 06:57:47;;;;;;;3.72;1.50;;;;;;;;;;5093086;28;20398;-85
2022/07/27 07:00:15;;;;;;;2.80;1.48;;;;;;;;;;5094399;28;20369;-88
2022/07/27 07:02:55;;;;;;;3.97;1.80;;;;;;;;;;5092605;28;20403;-86
2022/07/27 07:05:22;;;;;;;3.78;2.30;;;;;;;;;;5092664;28;20392;-87
2022/07/27 07:07:49;;;;;;;4.30;2.03;;;;;;;;;;5092431;28;20451;-84
2022/07/27 07:10:16;;;;;;;3.35;1.50;;;;;;;;;;5092592;28;20821;-85
2022/07/27 07:12:43;;;;;;;3.97;1.50;;;;;;;;;;5092630;28;20386;-84
2022/07/27 07:15:12;;;;;;;8.05;1.83;;;;;;;;;;5092398;28;20364;-83
2022/07/27 07:17:39;;;;;;;5.30;1.88;;;;;;;;;;5092378;28;20360;-84
2022/07/27 07:20:07;;;;;;;4.72;1.70;;;;;;;;;;5091284;28;20431;-85
2022/07/27 07:22:34;;;;;;;4.07;1.70;;;;;;;;;;5093263;28;20365;-86
2022/07/27 07:25:01;;;;;;;4.25;1.40;;;;;;;;;;5097692;28;20428;-87
2022/07/27 07:27:29;;;;;;;3.95;1.50;;;;;;;;;;5096180;28;20356;-85
2022/07/27 07:29:56;;;;;;;4.10;1.70;;;;;;;;;;5094996;28;20414;-84
2022/07/27 07:32:24;;;;;;;4.18;1.40;;;;;;;;;;5097012;28;20542;-86
2022/07/27 07:34:52;;;;;;;4.00;1.60;;;;;;;;;;5093998;28;20451;-83
2022/07/27 07:37:20;;;;;;;3.42;1.40;;;;;;;;;;5093536;28;20417;-84
2022/07/27 07:39:47;;;;;;;3.80;1.30;;;;;;;;;;5093627;28;20367;-85
2022/07/27 07:42:15;;;;;;;3.67;1.40;;;;;;;;;;5092725;28;20471;-87
2022/07/27 07:44:42;;;;;;;5.57;1.20;;;;;;;;;;5093433;28;20364;-84
2022/07/27 07:47:09;;;;;;;6.47;1.30;;;;;;;;;;5093415;28;20368;-85
2022/07/27 07:49:36;;;;;;;4.33;1.30;;;;;;;;;;5092162;28;20392;-84
2022/07/27 07:52:03;;;;;;;3.83;1.60;;;;;;;;;;5092025;28;20376;-83
2022/07/27 07:54:30;;;;;;;4.63;1.70;;;;;;;;;;5092963;28;20449;-84
2022/07/27 07:56:57;;;;;;;4.32;1.50;;;;;;;;;;5092758;28;20377;-83
2022/07/27 07:59:24;;;;;;;7.88;1.63;;;;;;;;;;5093588;28;20410;-85
2022/07/27 08:01:51;;;;;;;3.63;1.38;;;;;;;;;;5092153;28;20894;-83
2022/07/27 08:04:18;;;;;;;4.95;1.60;;;;;;;;;;5091981;28;20365;-85
2022/07/27 08:06:45;;;;;;;4.72;1.70;;;;;;;;;;5092112;28;20879;-86
2022/07/27 08:09:15;;;;;;;4.47;2.10;;;;;;;;;;5092124;28;20396;-85
2022/07/27 08:11:46;;;;;;;5.40;2.72;;;;;;;;;;5091831;28;20463;-84
2022/07/27 08:14:13;;;;;;;5.53;3.10;;;;;;;;;;5092200;28;20417;-85
2022/07/27 08:16:40;;;;;;;6.50;3.80;;;;;;;;;;5092366;28;20379;-85
2022/07/27 08:19:07;;;;;;;6.32;3.40;;;;;;;;;;5095428;28;20880;-83
2022/07/27 08:21:34;;;;;;;5.43;2.50;;;;;;;;;;5096034;28;20368;-83
2022/07/27 08:24:01;;;;;;;3.55;2.40;;;;;;;;;;5095606;28;20748;-86
2022/07/27 08:26:28;;;;;;;4.50;1.90;;;;;;;;;;5095449;28;20372;-82
2022/07/27 08:28:55;;;;;;;3.85;1.80;;;;;;;;;;5095778;28;20855;-83
2022/07/27 08:31:22;;;;;;;3.25;1.30;;;;;;;;;;5095542;28;20411;-86
2022/07/27 08:33:49;;;;;;;4.45;1.30;;;;;;;;;;5095478;28;20409;-89
2022/07/27 08:36:17;;;;;;;2.50;1.05;;;;;;;;;;5095031;28;20396;-83
2022/07/27 08:38:45;;;;;;;2.05;1.08;;;;;;;;;;5096509;28;20434;-87
2022/07/27 08:41:14;;;;;;;2.35;1.10;;;;;;;;;;5095949;28;20377;-85
2022/07/27 08:43:44;;;;;;;2.35;1.27;;;;;;;;;;5096494;28;20383;-83
2022/07/27 08:46:11;;;;;;;1.73;1.00;;;;;;;;;;5096094;28;20399;-82
2022/07/27 08:48:39;;;;;;;3.27;1.20;;;;;;;;;;5098613;28;20466;-86
2022/07/27 08:51:06;;;;;;;2.83;1.13;;;;;;;;;;5101553;28;20400;-82
2022/07/27 08:53:33;;;;;;;2.90;1.50;;;;;;;;;;5099314;28;20364;-82
2022/07/27 08:56:01;;;;;;;1.85;1.00;;;;;;;;;;5100696;28;20364;-82
2022/07/27 08:58:28;;;;;;;2.50;1.48;;;;;;;;;;5098639;28;20384;-82
2022/07/27 09:00:56;;;;;;;3.28;1.30;;;;;;;;;;5104521;28;20704;-80
2022/07/27 09:03:23;;;;;;;2.60;1.30;;;;;;;;;;5108906;28;20376;-84
2022/07/27 09:05:54;;;;;;;2.17;0.85;;;;;;;;;;5107324;28;20400;-83
2022/07/27 09:08:23;;;;;;;2.00;1.08;;;;;;;;;;5109564;28;20412;-80
2022/07/27 09:10:50;;;;;;;2.90;1.30;;;;;;;;;;5113623;28;20404;-80
2022/07/27 09:13:18;;;;;;;2.72;1.55;;;;;;;;;;5116585;28;20372;-81
2022/07/27 09:15:46;;;;;;;3.70;2.75;;;;;;;;;;5113495;28;20378;-81
2022/07/27 09:18:17;;;;;;;3.67;2.28;;;;;;;;;;5106211;28;20379;-83
2022/07/27 09:20:44;;;;;;;4.22;2.00;;;;;;;;;;5098823;28;20392;-85
2022/07/27 09:23:11;;;;;;;4.68;2.10;;;;;;;;;;5097141;28;20365;-82
2022/07/27 09:25:38;;;;;;;5.00;2.50;;;;;;;;;;5095577;28;20372;-84
2022/07/27 09:28:05;;;;;;;6.32;4.22;;;;;;;;;;5095036;28;20365;-81
2022/07/27 09:30:33;;;;;;;5.93;3.17;;;;;;;;;;5095088;28;20392;-88
2022/07/27 09:33:02;;;;;;;5.47;2.80;;;;;;;;;;5094549;28;20364;-82
2022/07/27 09:35:33;;;;;;;5.05;2.70;;;;;;;;;;5094873;28;20869;-83
2022/07/27 09:38:17;;;;;;;3.60;2.30;;;;;;;;;;5095148;28;20357;-87
2022/07/27 09:40:49;;;;;;;3.55;1.83;;;;;;;;;;5092906;28;20388;-84
2022/07/27 09:43:16;;;;;;;5.80;2.05;;;;;;;;;;5093866;28;20396;-81
2022/07/27 09:45:43;;;;;;;3.03;1.70;;;;;;;;;;5094114;28;20368;-82
2022/07/27 09:48:11;;;;;;;2.53;1.70;;;;;;;;;;5093834;28;20433;-82
2022/07/27 09:50:41;;;;;;;6.47;3.17;;;;;;;;;;5093684;28;20388;-82
2022/07/27 09:53:16;;;;;;;5.90;3.50;;;;;;;;;;5093812;28;20407;-81
2022/07/27 09:55:43;;;;;;;4.70;2.40;;;;;;;;;;5094286;28;20376;-81
2022/07/27 09:58:10;;;;;;;5.00;2.28;;;;;;;;;;5093714;28;20444;-84
2022/07/27 10:00:37;;;;;;;4.20;2.40;;;;;;;;;;5093928;28;20904;-84
2022/07/27 10:03:04;;;;;;;4.10;2.45;;;;;;;;;;5093906;28;20373;-83
2022/07/27 10:05:31;;;;;;;4.68;2.95;;;;;;;;;;5093326;28;20729;-82
2022/07/27 10:07:58;;;;;;;4.05;3.08;;;;;;;;;;5093644;28;20361;-82
2022/07/27 10:10:25;;;;;;;3.70;2.20;;;;;;;;;;5097272;28;20428;-82
2022/07/27 10:12:52;;;;;;;2.80;1.30;;;;;;;;;;5094518;28;20421;-83
2022/07/27 10:15:19;;;;;;;2.72;1.63;;;;;;;;;;5094260;28;20443;-83
2022/07/27 10:17:48;;;;;;;3.17;1.83;;;;;;;;;;5092725;28;20747;-81
2022/07/27 10:20:16;;;;;;;5.20;2.90;;;;;;;;;;5094913;28;20384;-81
2022/07/27 10:22:50;;;;;;;5.50;3.33;;;;;;;;;;5094293;28;20368;-82
2022/07/27 10:25:17;;;;;;;5.13;3.00;;;;;;;;;;5093200;28;20368;-82
2022/07/27 10:27:48;;;;;;;6.37;3.77;;;;;;;;;;5094141;28;20376;-83
2022/07/27 10:30:18;;;;;;;6.60;4.25;;;;;;;;;;5094469;28;20412;-83
2022/07/27 10:32:46;;;;;;;9.05;4.38;;;;;;;;;;5093642;28;20361;-81
2022/07/27 10:35:33;;;;;;;5.03;2.70;;;;;;;;;;5093546;28;20799;-81
2022/07/27 10:38:09;;;;;;;4.10;2.53;;;;;;;;;;5097840;28;20854;-81
2022/07/27 10:40:37;;;;;;;3.53;1.90;;;;;;;;;;5097910;28;20376;-81
2022/07/27 10:43:24;;;;;;;3.23;1.33;;;;;;;;;;5096196;28;20430;-82
2022/07/27 10:45:52;;;;;;;3.67;1.38;;;;;;;;;;5095948;28;20417;-81
2022/07/27 10:48:36;;;;;;;2.20;1.27;;;;;;;;;;5095301;28;20372;-82
2022/07/27 10:51:10;;;;;;;1.85;1.10;;;;;;;;;;5075928;28;20401;-83
2022/07/27 10:53:38;;;;;;;2.93;1.10;;;;;;;;;;5094407;28;20491;-82
2022/07/27 10:56:05;;;;;;;2.10;1.10;;;;;;;;;;5093908;28;20392;-82
2022/07/27 10:58:32;;;;;;;2.40;1.30;;;;;;;;;;5093525;28;20365;-82
2022/07/27 11:01:01;;;;;;;3.05;1.60;;;;;;;;;;5092785;28;20380;-82
2022/07/27 11:03:31;;;;;;;3.65;2.30;;;;;;;;;;5093596;28;20364;-83
2022/07/27 11:05:58;;;;;;;3.90;2.25;;;;;;;;;;5093654;28;20392;-83
2022/07/27 11:08:29;;;;;;;2.33;1.58;;;;;;;;;;5092629;28;20748;-81
2022/07/27 11:10:57;;;;;;;2.65;1.48;;;;;;;;;;5093602;28;20400;-82
2022/07/27 11:13:25;;;;;;;2.33;1.10;;;;;;;;;;5093456;28;20388;-83
2022/07/27 11:15:51;;;;;;;1.42;1.20;;;;;;;;;;5092966;28;20910;-81
2022/07/27 11:18:18;;;;;;;3.75;1.30;;;;;;;;;;5093167;28;20751;-82
2022/07/27 11:20:45;;;;;;;2.00;1.10;;;;;;;;;;5092921;28;20694;-82
2022/07/27 11:23:21;;;;;;;1.33;1.00;;;;;;;;;;5093240;28;20360;-82
2022/07/27 11:26:00;;;;;;;2.22;1.08;;;;;;;;;;5092042;28;20707;-82
2022/07/27 11:28:37;;;;;;;1.38;0.85;;;;;;;;;;5093158;28;20359;-82
2022/07/27 11:31:06;;;;;;;1.90;1.40;;;;;;;;;;5093020;28;20396;-82
2022/07/27 11:33:34;;;;;;;1.48;1.10;;;;;;;;;;5092876;28;20732;-82
2022/07/27 11:36:02;;;;;;;2.35;1.00;;;;;;;;;;5091328;28;20380;-82
2022/07/27 11:38:29;;;;;;;2.20;1.25;;;;;;;;;;5092983;28;20372;-80
2022/07/27 11:40:59;;;;;;;2.42;1.63;;;;;;;;;;5092567;28;20437;-82
2022/07/27 11:43:36;;;;;;;3.13;2.27;;;;;;;;;;5091879;28;20393;-82
2022/07/27 11:46:17;;;;;;;10.52;6.45;;;;;;;;;;5092040;28;20365;-82
2022/07/27 11:48:57;;;;;;;39.85;18.75;;;;;;;;;;5091936;28;20365;-82
2022/07/27 11:51:24;;;;;;;56.38;27.27;;;;;;;;;;5092991;28;20410;-82
2022/07/27 11:54:01;;;;;;;54.17;27.42;;;;;;;;;;5095533;28;20838;-82
2022/07/27 11:56:31;;;;;;;37.72;18.25;;;;;;;;;;5096289;28;20365;-82
2022/07/27 11:58:58;;;;;;;24.23;12.10;;;;;;;;;;5095787;28;20422;-82
2022/07/27 12:01:29;;;;;;;14.70;8.27;;;;;;;;;;5095626;28;20459;-82
2022/07/27 12:04:13;;;;;;;13.25;7.00;;;;;;;;;;5094406;28;20356;-80
2022/07/27 12:06:42;;;;;;;6.43;3.72;;;;;;;;;;5095878;28;20414;-81
2022/07/27 12:09:11;;;;;;;5.00;3.05;;;;;;;;;;5095495;28;20387;-81
2022/07/27 12:11:46;;;;;;;5.38;2.92;;;;;;;;;;5095295;28;20926;-82
2022/07/27 12:14:13;;;;;;;2.97;1.70;;;;;;;;;;5095276;28;20360;-82
2022/07/27 12:16:40;;;;;;;1.38;1.00;;;;;;;;;;5095322;28;20368;-81
2022/07/27 12:19:11;;;;;;;1.80;0.90;;;;;;;;;;5095331;28;20455;-81
2022/07/27 12:21:38;;;;;;;2.95;1.70;;;;;;;;;;5095807;28;20361;-82
2022/07/27 12:24:06;;;;;;;3.17;1.55;;;;;;;;;;5095941;28;20423;-81
2022/07/27 12:26:33;;;;;;;2.60;1.50;;;;;;;;;;5095931;28;20365;-82
2022/07/27 12:29:11;;;;;;;3.10;1.30;;;;;;;;;;5096694;28;20743;-80
2022/07/27 12:31:47;;;;;;;2.63;1.73;;;;;;;;;;5094380;28;20888;-81
2022/07/27 12:34:14;;;;;;;3.28;1.80;;;;;;;;;;5095794;28;20364;-81
2022/07/27 12:36:42;;;;;;;2.40;1.20;;;;;;;;;;5095425;28;20407;-81
2022/07/27 12:39:25;;;;;;;2.58;1.33;;;;;;;;;;5095424;28;20456;-82
2022/07/27 12:42:02;;;;;;;4.70;1.10;;;;;;;;;;5094996;28;20416;-81
2022/07/27 12:44:33;;;;;;;3.80;1.30;;;;;;;;;;5094836;28;20367;-81
2022/07/27 12:47:01;;;;;;;3.80;1.88;;;;;;;;;;5095323;28;20365;-83
2022/07/27 12:49:33;;;;;;;4.88;2.47;;;;;;;;;;5095163;28;20395;-81
2022/07/27 12:52:10;;;;;;;8.73;5.97;;;;;;;;;;5094977;28;20380;-82
2022/07/27 12:54:37;;;;;;;11.23;9.35;;;;;;;;;;5095485;28;20387;-82
2022/07/27 12:57:06;;;;;;;9.98;7.88;;;;;;;;;;5095011;28;20377;-82
2022/07/27 12:59:33;;;;;;;11.83;8.30;;;;;;;;;;5094456;28;20360;-82
2022/07/27 13:02:00;;;;;;;6.82;4.72;;;;;;;;;;5094470;28;20716;-81
2022/07/27 13:04:27;;;;;;;8.27;4.88;;;;;;;;;;5093854;28;20453;-82
2022/07/27 13:06:54;;;;;;;6.05;4.25;;;;;;;;;;5094476;28;20399;-84
2022/07/27 13:09:21;;;;;;;8.43;4.68;;;;;;;;;;5094352;28;20486;-82
2022/07/27 13:11:48;;;;;;;6.90;4.60;;;;;;;;;;5094379;28;20396;-82
2022/07/27 13:14:15;;;;;;;7.53;4.25;;;;;;;;;;5094543;28;20368;-82
2022/07/27 13:16:42;;;;;;;5.57;4.22;;;;;;;;;;5094554;28;20451;-82
2022/07/27 13:19:10;;;;;;;6.57;4.50;;;;;;;;;;5093095;28;20832;-81
2022/07/27 13:21:37;;;;;;;7.20;4.60;;;;;;;;;;5094201;28;20432;-81
2022/07/27 13:24:05;;;;;;;7.07;4.30;;;;;;;;;;5094032;28;20364;-80
2022/07/27 13:26:32;;;;;;;6.57;3.90;;;;;;;;;;5093954;28;20416;-81
2022/07/27 13:28:59;;;;;;;7.73;4.30;;;;;;;;;;5094247;28;20387;-81
2022/07/27 13:31:26;;;;;;;5.47;3.70;;;;;;;;;;5093856;28;20400;-80
2022/07/27 13:33:53;;;;;;;3.65;3.25;;;;;;;;;;5093953;28;20771;-81
2022/07/27 13:36:21;;;;;;;5.32;3.50;;;;;;;;;;5093900;28;20862;-81
2022/07/27 13:38:48;;;;;;;6.40;3.60;;;;;;;;;;5093728;28;20371;-81
2022/07/27 13:41:15;;;;;;;5.87;3.70;;;;;;;;;;5093718;28;20376;-83
2022/07/27 13:43:42;;;;;;;4.63;3.60;;;;;;;;;;5093544;28;20435;-82
2022/07/27 13:46:09;;;;;;;6.63;3.80;;;;;;;;;;5094151;28;20397;-82
2022/07/27 13:48:38;;;;;;;5.03;3.42;;;;;;;;;;5094012;28;20368;-82
2022/07/27 13:51:05;;;;;;;4.97;3.33;;;;;;;;;;5093645;28;20396;-81
2022/07/27 13:53:32;;;;;;;5.10;3.25;;;;;;;;;;5097325;28;20365;-82
2022/07/27 13:56:01;;;;;;;5.15;3.50;;;;;;;;;;5098280;28;20368;-81
2022/07/27 13:58:29;;;;;;;5.82;3.53;;;;;;;;;;5095086;28;20368;-81
2022/07/27 14:00:56;;;;;;;5.65;3.40;;;;;;;;;;5094174;28;20365;-81
2022/07/27 14:03:23;;;;;;;5.63;3.85;;;;;;;;;;5094242;28;20368;-81
2022/07/27 14:05:50;;;;;;;7.90;3.93;;;;;;;;;;5093822;28;20446;-82
2022/07/27 14:08:20;;;;;;;5.50;3.63;;;;;;;;;;5093471;28;20418;-82
2022/07/27 14:10:47;;;;;;;5.50;4.10;;;;;;;;;;5093470;28;20410;-82
2022/07/27 14:13:15;;;;;;;8.30;4.20;;;;;;;;;;5093615;28;20361;-82
2022/07/27 14:15:43;;;;;;;6.78;4.20;;;;;;;;;;5093292;28;20357;-81
2022/07/27 14:18:10;;;;;;;6.75;3.75;;;;;;;;;;5093491;28;20384;-80
2022/07/27 14:20:38;;;;;;;3.97;3.00;;;;;;;;;;5093510;28;20368;-81
2022/07/27 14:23:05;;;;;;;5.80;3.20;;;;;;;;;;5093332;28;20870;-81
2022/07/27 14:25:32;;;;;;;3.47;2.28;;;;;;;;;;5093317;28;20400;-80
2022/07/27 14:28:01;;;;;;;5.03;2.80;;;;;;;;;;5092927;28;20440;-82
2022/07/27 14:30:29;;;;;;;4.55;2.00;;;;;;;;;;5092972;28;20400;-82
2022/07/27 14:32:57;;;;;;;3.47;2.10;;;;;;;;;;5092878;28;20694;-82
2022/07/27 14:35:24;;;;;;;2.90;2.10;;;;;;;;;;5092838;28;20567;-81
2022/07/27 14:37:51;;;;;;;2.90;1.75;;;;;;;;;;5093329;28;20373;-80
2022/07/27 14:40:18;;;;;;;3.17;2.00;;;13.00;82.00;;;;;;5093040;28;20373;-82
2022/07/27 14:42:45;;;;;;;2.30;1.90;;;7.50;99.90;;;;;;5092517;28;20822;-81
2022/07/27 14:45:12;;;;;;;3.60;1.90;;;7.30;99.90;;;;;;5092776;28;20376;-82
2022/07/27 14:47:39;;;;;;;3.08;1.80;;;;;;;;;;5092542;28;20421;-81
2022/07/27 14:50:08;;;;;;;2.70;2.00;;;;;;;;;;5092797;28;20759;-81